sensor_id;sensor_type;location;lat;lon;timestamp;pressure;altitude;pressure_sealevel;temperature;humidity
83248;BME280;73465;51.038;7.052;2023-10-31T00:01:02;98940.25;;;11.63;80.50
83248;BME280;73465;51.038;7.052;2023-10-31T00:03:27;98945.78;;;11.71;79.96
83248;BME280;73465;51.038;7.052;2023-10-31T00:05:53;98932.97;;;11.66;79.30
83248;BME280;73465;51.038;7.052;2023-10-31T00:08:18;98947.19;;;11.41;78.63
83248;BME280;73465;51.038;7.052;2023-10-31T00:10:43;98965.66;;;11.30;79.91
83248;BME280;73465;51.038;7.052;2023-10-31T00:13:10;98978.56;;;11.21;79.60
83248;BME280;73465;51.038;7.052;2023-10-31T00:15:36;98970.31;;;11.26;80.24
83248;BME280;73465;51.038;7.052;2023-10-31T00:18:01;98984.31;;;11.27;80.40
83248;BME280;73465;51.038;7.052;2023-10-31T00:20:26;98988.75;;;11.26;80.20
83248;BME280;73465;51.038;7.052;2023-10-31T00:22:52;98984.44;;;11.25;79.99
83248;BME280;73465;51.038;7.052;2023-10-31T00:25:17;98983.09;;;11.19;80.38
83248;BME280;73465;51.038;7.052;2023-10-31T00:27:42;98986.34;;;11.23;80.97
83248;BME280;73465;51.038;7.052;2023-10-31T00:30:08;99002.41;;;11.20;80.31
83248;BME280;73465;51.038;7.052;2023-10-31T00:32:33;98995.66;;;11.16;80.92
83248;BME280;73465;51.038;7.052;2023-10-31T00:34:58;98998.44;;;11.26;80.40
83248;BME280;73465;51.038;7.052;2023-10-31T00:37:24;98994.63;;;11.18;80.29
83248;BME280;73465;51.038;7.052;2023-10-31T00:39:50;99004.91;;;11.21;79.80
83248;BME280;73465;51.038;7.052;2023-10-31T00:42:15;98995.44;;;11.19;80.19
83248;BME280;73465;51.038;7.052;2023-10-31T00:44:41;99009.22;;;11.11;80.53
83248;BME280;73465;51.038;7.052;2023-10-31T00:47:06;99017.59;;;11.16;80.32
83248;BME280;73465;51.038;7.052;2023-10-31T00:49:31;99029.47;;;11.22;80.18
83248;BME280;73465;51.038;7.052;2023-10-31T00:51:56;99011.25;;;11.19;79.89
83248;BME280;73465;51.038;7.052;2023-10-31T00:54:22;99012.81;;;11.33;79.88
83248;BME280;73465;51.038;7.052;2023-10-31T00:56:47;99016.94;;;11.60;78.74
83248;BME280;73465;51.038;7.052;2023-10-31T00:59:13;99016.31;;;11.45;78.94
83248;BME280;73465;51.038;7.052;2023-10-31T01:01:38;99006.13;;;11.29;78.88
83248;BME280;73465;51.038;7.052;2023-10-31T01:04:03;99014.97;;;11.28;79.41
83248;BME280;73465;51.038;7.052;2023-10-31T01:06:29;99020.38;;;11.37;78.51
83248;BME280;73465;51.038;7.052;2023-10-31T01:08:55;99026.75;;;11.46;78.50
83248;BME280;73465;51.038;7.052;2023-10-31T01:11:20;99039.09;;;11.34;77.85
83248;BME280;73465;51.038;7.052;2023-10-31T01:13:46;99034.63;;;11.23;77.63
83248;BME280;73465;51.038;7.052;2023-10-31T01:16:12;99036.97;;;11.15;77.51
83248;BME280;73465;51.038;7.052;2023-10-31T01:18:37;99040.69;;;11.13;78.30
83248;BME280;73465;51.038;7.052;2023-10-31T01:21:03;99037.59;;;11.19;77.72
83248;BME280;73465;51.038;7.052;2023-10-31T01:23:28;99057.22;;;11.15;78.36
83248;BME280;73465;51.038;7.052;2023-10-31T01:25:53;99065.31;;;11.00;77.60
83248;BME280;73465;51.038;7.052;2023-10-31T01:28:18;99056.09;;;11.06;78.49
83248;BME280;73465;51.038;7.052;2023-10-31T01:30:44;99052.19;;;11.12;78.60
83248;BME280;73465;51.038;7.052;2023-10-31T01:33:11;99049.97;;;11.30;78.08
83248;BME280;73465;51.038;7.052;2023-10-31T01:35:36;99055.16;;;11.07;77.48
83248;BME280;73465;51.038;7.052;2023-10-31T01:38:04;99059.88;;;10.90;78.35
83248;BME280;73465;51.038;7.052;2023-10-31T01:40:29;99056.75;;;10.85;77.45
83248;BME280;73465;51.038;7.052;2023-10-31T01:42:55;99065.88;;;10.93;78.18
83248;BME280;73465;51.038;7.052;2023-10-31T01:45:21;99070.88;;;11.20;77.11
83248;BME280;73465;51.038;7.052;2023-10-31T01:47:48;99075.72;;;11.02;77.62
83248;BME280;73465;51.038;7.052;2023-10-31T01:50:14;99068.94;;;11.11;77.30
83248;BME280;73465;51.038;7.052;2023-10-31T01:52:40;99075.31;;;11.19;77.12
83248;BME280;73465;51.038;7.052;2023-10-31T01:55:06;99076.97;;;11.09;76.51
83248;BME280;73465;51.038;7.052;2023-10-31T01:57:32;99081.03;;;11.13;77.45
83248;BME280;73465;51.038;7.052;2023-10-31T01:59:58;99075.09;;;11.22;76.37
83248;BME280;73465;51.038;7.052;2023-10-31T02:02:25;99075.09;;;11.22;76.72
83248;BME280;73465;51.038;7.052;2023-10-31T02:04:52;99072.19;;;11.14;76.57
83248;BME280;73465;51.038;7.052;2023-10-31T02:07:18;99057.28;;;11.02;77.73
83248;BME280;73465;51.038;7.052;2023-10-31T02:09:43;99062.25;;;11.18;77.46
83248;BME280;73465;51.038;7.052;2023-10-31T02:12:08;99070.75;;;11.10;77.43
83248;BME280;73465;51.038;7.052;2023-10-31T02:14:34;99062.81;;;10.99;77.11
83248;BME280;73465;51.038;7.052;2023-10-31T02:16:59;99057.28;;;11.02;77.71
83248;BME280;73465;51.038;7.052;2023-10-31T02:19:24;99057.69;;;11.08;76.88
83248;BME280;73465;51.038;7.052;2023-10-31T02:21:50;99058.81;;;11.29;77.43
83248;BME280;73465;51.038;7.052;2023-10-31T02:24:15;99061.66;;;11.26;77.62
83248;BME280;73465;51.038;7.052;2023-10-31T02:26:40;99055.53;;;11.14;76.91
83248;BME280;73465;51.038;7.052;2023-10-31T02:29:06;99062.09;;;11.08;77.59
83248;BME280;73465;51.038;7.052;2023-10-31T02:31:31;99048.97;;;11.19;77.09
83248;BME280;73465;51.038;7.052;2023-10-31T02:33:57;99058.41;;;11.58;76.73
83248;BME280;73465;51.038;7.052;2023-10-31T02:36:22;99067.28;;;11.68;75.40
83248;BME280;73465;51.038;7.052;2023-10-31T02:38:48;99066.63;;;12.00;74.88
83248;BME280;73465;51.038;7.052;2023-10-31T02:41:14;99070.59;;;12.17;74.41
83248;BME280;73465;51.038;7.052;2023-10-31T02:43:41;99080.06;;;11.97;75.25
83248;BME280;73465;51.038;7.052;2023-10-31T02:46:06;99069.97;;;12.13;74.83
83248;BME280;73465;51.038;7.052;2023-10-31T02:48:32;99079.91;;;12.21;74.78
83248;BME280;73465;51.038;7.052;2023-10-31T02:51:06;99072.00;;;11.87;75.04
83248;BME280;73465;51.038;7.052;2023-10-31T02:53:33;99076.28;;;11.65;75.00
83248;BME280;73465;51.038;7.052;2023-10-31T02:55:58;99071.09;;;11.52;74.66
83248;BME280;73465;51.038;7.052;2023-10-31T02:58:23;99077.06;;;11.43;76.69
83248;BME280;73465;51.038;7.052;2023-10-31T03:00:49;99080.59;;;11.66;75.09
83248;BME280;73465;51.038;7.052;2023-10-31T03:03:14;99085.13;;;11.53;76.41
83248;BME280;73465;51.038;7.052;2023-10-31T03:05:39;99079.41;;;11.82;75.75
83248;BME280;73465;51.038;7.052;2023-10-31T03:08:05;99094.22;;;12.07;75.81
83248;BME280;73465;51.038;7.052;2023-10-31T03:10:32;99085.56;;;12.05;75.04
83248;BME280;73465;51.038;7.052;2023-10-31T03:15:38;99088.09;;;12.07;75.17
83248;BME280;73465;51.038;7.052;2023-10-31T03:18:19;99100.06;;;12.22;75.03
83248;BME280;73465;51.038;7.052;2023-10-31T03:20:57;99095.63;;;12.00;74.58
83248;BME280;73465;51.038;7.052;2023-10-31T03:23:32;99096.66;;;11.75;75.32
83248;BME280;73465;51.038;7.052;2023-10-31T03:26:12;99096.56;;;11.76;75.29
83248;BME280;73465;51.038;7.052;2023-10-31T03:28:38;99095.97;;;11.84;75.69
83248;BME280;73465;51.038;7.052;2023-10-31T03:31:10;99093.31;;;11.72;75.59
83248;BME280;73465;51.038;7.052;2023-10-31T03:34:08;99099.66;;;11.70;75.58
83248;BME280;73465;51.038;7.052;2023-10-31T03:36:45;99099.38;;;11.50;75.71
83248;BME280;73465;51.038;7.052;2023-10-31T03:39:11;99088.38;;;11.56;76.29
83248;BME280;73465;51.038;7.052;2023-10-31T03:41:37;99101.91;;;11.75;75.06
83248;BME280;73465;51.038;7.052;2023-10-31T03:44:03;99097.03;;;11.70;75.00
83248;BME280;73465;51.038;7.052;2023-10-31T03:46:31;99109.75;;;11.87;75.24
83248;BME280;73465;51.038;7.052;2023-10-31T03:49:00;99104.00;;;11.82;74.84
83248;BME280;73465;51.038;7.052;2023-10-31T03:51:29;99120.03;;;11.68;75.19
83248;BME280;73465;51.038;7.052;2023-10-31T03:53:57;99123.63;;;11.78;74.60
83248;BME280;73465;51.038;7.052;2023-10-31T03:56:29;99120.28;;;11.76;74.84
83248;BME280;73465;51.038;7.052;2023-10-31T03:59:00;99113.88;;;11.56;75.37
83248;BME280;73465;51.038;7.052;2023-10-31T04:01:29;99111.38;;;11.66;74.58
83248;BME280;73465;51.038;7.052;2023-10-31T04:03:55;99124.50;;;11.43;75.30
83248;BME280;73465;51.038;7.052;2023-10-31T04:06:23;99131.09;;;11.49;76.16
83248;BME280;73465;51.038;7.052;2023-10-31T04:08:52;99133.19;;;11.56;75.67
83248;BME280;73465;51.038;7.052;2023-10-31T04:11:17;99129.47;;;11.59;75.45
83248;BME280;73465;51.038;7.052;2023-10-31T04:13:43;99136.09;;;11.76;75.75
83248;BME280;73465;51.038;7.052;2023-10-31T04:16:20;99133.94;;;11.81;75.16
83248;BME280;73465;51.038;7.052;2023-10-31T04:18:57;99146.06;;;11.84;74.62
83248;BME280;73465;51.038;7.052;2023-10-31T04:21:25;99140.06;;;11.46;75.58
83248;BME280;73465;51.038;7.052;2023-10-31T04:24:03;99143.66;;;11.45;75.57
83248;BME280;73465;51.038;7.052;2023-10-31T04:26:29;99136.13;;;11.40;75.75
83248;BME280;73465;51.038;7.052;2023-10-31T04:28:57;99152.31;;;11.47;75.28
83248;BME280;73465;51.038;7.052;2023-10-31T04:31:23;99146.38;;;11.56;75.14
83248;BME280;73465;51.038;7.052;2023-10-31T04:33:54;99142.06;;;11.31;75.64
83248;BME280;73465;51.038;7.052;2023-10-31T04:36:19;99149.31;;;11.16;76.64
83248;BME280;73465;51.038;7.052;2023-10-31T04:38:51;99148.84;;;11.22;77.15
83248;BME280;73465;51.038;7.052;2023-10-31T04:41:16;99141.28;;;11.18;75.62
83248;BME280;73465;51.038;7.052;2023-10-31T04:43:42;99145.81;;;11.40;75.65
83248;BME280;73465;51.038;7.052;2023-10-31T04:46:07;99152.72;;;11.30;75.95
83248;BME280;73465;51.038;7.052;2023-10-31T04:48:33;99161.44;;;11.54;75.34
83248;BME280;73465;51.038;7.052;2023-10-31T04:51:01;99165.00;;;11.42;76.82
83248;BME280;73465;51.038;7.052;2023-10-31T04:53:30;99163.81;;;11.46;75.24
83248;BME280;73465;51.038;7.052;2023-10-31T04:55:57;99161.88;;;11.37;76.06
83248;BME280;73465;51.038;7.052;2023-10-31T04:58:26;99167.44;;;11.56;75.50
83248;BME280;73465;51.038;7.052;2023-10-31T05:00:55;99167.38;;;11.45;75.27
83248;BME280;73465;51.038;7.052;2023-10-31T05:03:27;99168.38;;;11.44;75.56
83248;BME280;73465;51.038;7.052;2023-10-31T05:05:58;99174.88;;;11.51;75.68
83248;BME280;73465;51.038;7.052;2023-10-31T05:09:06;99183.63;;;11.28;76.40
83248;BME280;73465;51.038;7.052;2023-10-31T05:11:44;99180.50;;;11.10;76.38
83248;BME280;73465;51.038;7.052;2023-10-31T05:14:09;99189.56;;;11.18;76.74
83248;BME280;73465;51.038;7.052;2023-10-31T05:16:42;99186.28;;;11.39;76.52
83248;BME280;73465;51.038;7.052;2023-10-31T05:19:08;99177.88;;;11.58;75.73
83248;BME280;73465;51.038;7.052;2023-10-31T05:21:36;99187.19;;;11.27;75.65
83248;BME280;73465;51.038;7.052;2023-10-31T05:24:02;99196.13;;;11.13;76.04
83248;BME280;73465;51.038;7.052;2023-10-31T05:29:42;99182.19;;;11.11;76.33
83248;BME280;73465;51.038;7.052;2023-10-31T05:32:10;99188.22;;;11.13;76.09
83248;BME280;73465;51.038;7.052;2023-10-31T05:35:00;99181.53;;;11.20;75.74
83248;BME280;73465;51.038;7.052;2023-10-31T05:37:46;99197.47;;;11.18;75.97
83248;BME280;73465;51.038;7.052;2023-10-31T05:40:13;99194.88;;;11.05;75.26
83248;BME280;73465;51.038;7.052;2023-10-31T05:42:40;99199.22;;;10.94;75.26
83248;BME280;73465;51.038;7.052;2023-10-31T05:45:06;99183.97;;;10.86;75.82
83248;BME280;73465;51.038;7.052;2023-10-31T05:47:31;99203.03;;;10.89;75.70
83248;BME280;73465;51.038;7.052;2023-10-31T05:49:58;99215.25;;;10.90;75.42
83248;BME280;73465;51.038;7.052;2023-10-31T05:52:27;99212.00;;;10.87;75.16
83248;BME280;73465;51.038;7.052;2023-10-31T05:54:53;99212.97;;;11.10;74.68
83248;BME280;73465;51.038;7.052;2023-10-31T05:57:20;99216.69;;;10.95;75.08
83248;BME280;73465;51.038;7.052;2023-10-31T05:59:45;99223.59;;;10.84;75.72
83248;BME280;73465;51.038;7.052;2023-10-31T06:02:10;99217.38;;;10.85;75.00
83248;BME280;73465;51.038;7.052;2023-10-31T06:04:39;99231.97;;;11.02;76.04
83248;BME280;73465;51.038;7.052;2023-10-31T06:07:04;99221.22;;;11.05;75.24
83248;BME280;73465;51.038;7.052;2023-10-31T06:09:29;99234.94;;;10.98;75.37
83248;BME280;73465;51.038;7.052;2023-10-31T06:11:55;99229.75;;;10.96;75.04
83248;BME280;73465;51.038;7.052;2023-10-31T06:14:24;99236.06;;;11.06;75.46
83248;BME280;73465;51.038;7.052;2023-10-31T06:16:51;99199.22;;;10.94;75.08
83248;BME280;73465;51.038;7.052;2023-10-31T06:19:16;99253.88;;;10.90;75.04
83248;BME280;73465;51.038;7.052;2023-10-31T06:21:42;99245.72;;;10.82;75.96
83248;BME280;73465;51.038;7.052;2023-10-31T06:24:07;99251.59;;;10.85;76.36
83248;BME280;73465;51.038;7.052;2023-10-31T06:26:33;99250.53;;;10.88;76.35
83248;BME280;73465;51.038;7.052;2023-10-31T06:28:58;99257.16;;;10.94;75.49
83248;BME280;73465;51.038;7.052;2023-10-31T06:31:23;99264.84;;;10.97;75.43
83248;BME280;73465;51.038;7.052;2023-10-31T06:33:52;99264.31;;;11.04;75.33
83248;BME280;73465;51.038;7.052;2023-10-31T06:36:23;99267.06;;;11.03;75.18
83248;BME280;73465;51.038;7.052;2023-10-31T06:38:48;99280.84;;;10.94;75.41
83248;BME280;73465;51.038;7.052;2023-10-31T06:41:15;99267.59;;;10.82;75.18
83248;BME280;73465;51.038;7.052;2023-10-31T06:43:49;99291.38;;;11.06;75.84
83248;BME280;73465;51.038;7.052;2023-10-31T06:46:15;99287.28;;;10.89;75.41
83248;BME280;73465;51.038;7.052;2023-10-31T06:48:41;99294.56;;;10.99;75.41
83248;BME280;73465;51.038;7.052;2023-10-31T06:51:07;99308.56;;;10.99;75.11
83248;BME280;73465;51.038;7.052;2023-10-31T06:53:35;99292.44;;;10.91;75.47
83248;BME280;73465;51.038;7.052;2023-10-31T06:56:03;99297.72;;;11.04;75.86
83248;BME280;73465;51.038;7.052;2023-10-31T06:58:33;99308.25;;;11.04;75.39
83248;BME280;73465;51.038;7.052;2023-10-31T07:00:58;99308.16;;;10.93;75.45
83248;BME280;73465;51.038;7.052;2023-10-31T07:03:28;99319.22;;;10.98;75.94
83248;BME280;73465;51.038;7.052;2023-10-31T07:06:02;99314.56;;;10.88;75.19
83248;BME280;73465;51.038;7.052;2023-10-31T07:08:29;99313.09;;;11.10;75.97
83248;BME280;73465;51.038;7.052;2023-10-31T07:11:01;99318.78;;;11.04;75.38
83248;BME280;73465;51.038;7.052;2023-10-31T07:13:42;99317.63;;;10.82;75.44
83248;BME280;73465;51.038;7.052;2023-10-31T07:16:07;99335.63;;;10.88;75.95
83248;BME280;73465;51.038;7.052;2023-10-31T07:18:33;99343.63;;;10.74;77.63
83248;BME280;73465;51.038;7.052;2023-10-31T07:20:58;99342.19;;;10.57;79.57
83248;BME280;73465;51.038;7.052;2023-10-31T07:23:23;99335.47;;;10.25;80.38
83248;BME280;73465;51.038;7.052;2023-10-31T07:25:49;99337.22;;;10.25;80.54
83248;BME280;73465;51.038;7.052;2023-10-31T07:28:14;99336.81;;;10.18;81.43
83248;BME280;73465;51.038;7.052;2023-10-31T07:30:39;99339.53;;;10.17;81.27
83248;BME280;73465;51.038;7.052;2023-10-31T07:33:05;99338.03;;;10.12;81.36
83248;BME280;73465;51.038;7.052;2023-10-31T07:35:30;99338.97;;;9.99;82.18
83248;BME280;73465;51.038;7.052;2023-10-31T07:37:56;99345.81;;;10.01;81.99
83248;BME280;73465;51.038;7.052;2023-10-31T07:40:22;99334.06;;;10.20;81.65
83248;BME280;73465;51.038;7.052;2023-10-31T07:42:47;99347.81;;;10.38;80.80
83248;BME280;73465;51.038;7.052;2023-10-31T07:45:13;99343.88;;;10.31;79.68
83248;BME280;73465;51.038;7.052;2023-10-31T07:47:39;99345.13;;;10.52;80.35
83248;BME280;73465;51.038;7.052;2023-10-31T07:50:11;99355.88;;;10.62;79.87
83248;BME280;73465;51.038;7.052;2023-10-31T07:52:38;99343.22;;;10.54;79.98
83248;BME280;73465;51.038;7.052;2023-10-31T07:55:22;99349.66;;;10.76;79.19
83248;BME280;73465;51.038;7.052;2023-10-31T07:57:48;99355.88;;;10.62;79.26
83248;BME280;73465;51.038;7.052;2023-10-31T08:00:13;99357.56;;;10.76;78.95
83248;BME280;73465;51.038;7.052;2023-10-31T08:05:38;99371.03;;;10.97;77.13
83248;BME280;73465;51.038;7.052;2023-10-31T08:08:47;99368.72;;;11.18;77.17
83248;BME280;73465;51.038;7.052;2023-10-31T08:11:12;99368.19;;;11.13;77.11
83248;BME280;73465;51.038;7.052;2023-10-31T08:13:38;99372.28;;;11.30;76.93
83248;BME280;73465;51.038;7.052;2023-10-31T08:16:05;99384.13;;;11.62;75.78
83248;BME280;73465;51.038;7.052;2023-10-31T08:18:31;99383.38;;;11.60;74.94
83248;BME280;73465;51.038;7.052;2023-10-31T08:20:57;99391.66;;;11.79;75.05
83248;BME280;73465;51.038;7.052;2023-10-31T08:23:25;99391.56;;;11.81;74.33
83248;BME280;73465;51.038;7.052;2023-10-31T08:25:51;99392.91;;;11.86;74.02
83248;BME280;73465;51.038;7.052;2023-10-31T08:28:17;99400.81;;;11.86;74.45
83248;BME280;73465;51.038;7.052;2023-10-31T08:30:45;99399.66;;;11.91;73.78
83248;BME280;73465;51.038;7.052;2023-10-31T08:33:12;99402.16;;;11.68;73.83
83248;BME280;73465;51.038;7.052;2023-10-31T08:35:41;99414.69;;;11.77;73.31
83248;BME280;73465;51.038;7.052;2023-10-31T08:38:08;99414.63;;;11.90;73.10
83248;BME280;73465;51.038;7.052;2023-10-31T08:40:33;99414.63;;;11.90;72.61
83248;BME280;73465;51.038;7.052;2023-10-31T08:43:21;99423.44;;;12.15;72.59
83248;BME280;73465;51.038;7.052;2023-10-31T08:45:47;99418.06;;;12.16;72.49
83248;BME280;73465;51.038;7.052;2023-10-31T08:48:13;99418.91;;;12.17;72.20
83248;BME280;73465;51.038;7.052;2023-10-31T08:50:41;99414.56;;;12.40;71.68
83248;BME280;73465;51.038;7.052;2023-10-31T08:53:06;99429.03;;;12.34;71.44
83248;BME280;73465;51.038;7.052;2023-10-31T08:55:41;99428.66;;;12.52;71.39
83248;BME280;73465;51.038;7.052;2023-10-31T08:58:11;99429.81;;;12.48;71.25
83248;BME280;73465;51.038;7.052;2023-10-31T09:00:40;99442.81;;;12.27;71.20
83248;BME280;73465;51.038;7.052;2023-10-31T09:03:13;99440.28;;;12.25;70.60
83248;BME280;73465;51.038;7.052;2023-10-31T09:05:39;99445.13;;;12.31;70.37
83248;BME280;73465;51.038;7.052;2023-10-31T09:08:05;99441.75;;;12.54;70.66
83248;BME280;73465;51.038;7.052;2023-10-31T09:10:35;99451.16;;;12.69;69.48
83248;BME280;73465;51.038;7.052;2023-10-31T09:15:36;99457.53;;;12.42;70.09
83248;BME280;73465;51.038;7.052;2023-10-31T09:18:01;99464.47;;;12.43;70.19
83248;BME280;73465;51.038;7.052;2023-10-31T09:20:27;99470.94;;;12.63;70.16
83248;BME280;73465;51.038;7.052;2023-10-31T09:22:52;99467.84;;;12.70;68.88
83248;BME280;73465;51.038;7.052;2023-10-31T09:25:18;99475.94;;;12.55;70.47
83248;BME280;73465;51.038;7.052;2023-10-31T09:27:43;99473.31;;;12.55;69.76
83248;BME280;73465;51.038;7.052;2023-10-31T09:30:09;99479.94;;;12.61;69.86
83248;BME280;73465;51.038;7.052;2023-10-31T09:32:35;99476.50;;;13.07;69.96
83248;BME280;73465;51.038;7.052;2023-10-31T09:35:00;99488.97;;;13.05;69.09
83248;BME280;73465;51.038;7.052;2023-10-31T09:37:25;99498.16;;;13.24;69.44
83248;BME280;73465;51.038;7.052;2023-10-31T09:39:50;99490.34;;;12.75;70.05
83248;BME280;73465;51.038;7.052;2023-10-31T09:42:16;99489.13;;;12.79;69.98
83248;BME280;73465;51.038;7.052;2023-10-31T09:44:41;99502.78;;;12.97;69.79
83248;BME280;73465;51.038;7.052;2023-10-31T09:47:07;99506.28;;;13.09;69.40
83248;BME280;73465;51.038;7.052;2023-10-31T09:49:32;99512.75;;;13.05;69.08
83248;BME280;73465;51.038;7.052;2023-10-31T09:51:58;99513.66;;;12.81;69.31
83248;BME280;73465;51.038;7.052;2023-10-31T09:54:25;99509.66;;;13.11;69.24
83248;BME280;73465;51.038;7.052;2023-10-31T09:56:52;99501.38;;;13.16;68.23
83248;BME280;73465;51.038;7.052;2023-10-31T09:59:17;99524.41;;;13.03;68.11
83248;BME280;73465;51.038;7.052;2023-10-31T10:01:43;99520.84;;;13.15;67.43
83248;BME280;73465;51.038;7.052;2023-10-31T10:04:09;99524.56;;;13.24;67.64
83248;BME280;73465;51.038;7.052;2023-10-31T10:06:34;99539.38;;;13.26;67.31
83248;BME280;73465;51.038;7.052;2023-10-31T10:09:00;99540.06;;;13.53;67.40
83248;BME280;73465;51.038;7.052;2023-10-31T10:11:29;99532.25;;;13.62;66.74
83248;BME280;73465;51.038;7.052;2023-10-31T10:13:56;99546.31;;;13.52;66.77
83248;BME280;73465;51.038;7.052;2023-10-31T10:16:32;99547.69;;;13.33;66.58
83248;BME280;73465;51.038;7.052;2023-10-31T10:19:18;99545.50;;;13.27;66.92
83248;BME280;73465;51.038;7.052;2023-10-31T10:22:10;99552.78;;;13.47;66.49
83248;BME280;73465;51.038;7.052;2023-10-31T10:24:40;99553.78;;;13.69;65.95
83248;BME280;73465;51.038;7.052;2023-10-31T10:27:07;99552.13;;;13.79;65.84
83248;BME280;73465;51.038;7.052;2023-10-31T10:29:33;99553.31;;;13.98;65.32
83248;BME280;73465;51.038;7.052;2023-10-31T10:31:58;99556.47;;;13.92;66.23
83248;BME280;73465;51.038;7.052;2023-10-31T10:34:24;99559.19;;;13.90;65.82
83248;BME280;73465;51.038;7.052;2023-10-31T10:36:49;99556.06;;;13.85;65.50
83248;BME280;73465;51.038;7.052;2023-10-31T10:39:18;99560.78;;;13.93;64.71
83248;BME280;73465;51.038;7.052;2023-10-31T10:41:46;99556.44;;;13.80;65.26
83248;BME280;73465;51.038;7.052;2023-10-31T10:44:16;99563.19;;;13.96;64.06
83248;BME280;73465;51.038;7.052;2023-10-31T10:46:48;99558.72;;;13.74;64.74
83248;BME280;73465;51.038;7.052;2023-10-31T10:49:16;99566.19;;;13.80;65.04
83248;BME280;73465;51.038;7.052;2023-10-31T10:52:06;99552.81;;;13.70;65.04
83248;BME280;73465;51.038;7.052;2023-10-31T10:54:37;99571.34;;;13.82;64.66
83248;BME280;73465;51.038;7.052;2023-10-31T11:00:02;99563.31;;;13.83;64.20
83248;BME280;73465;51.038;7.052;2023-10-31T11:02:29;99564.97;;;13.84;64.02
83248;BME280;73465;51.038;7.052;2023-10-31T11:04:55;99567.63;;;13.84;63.57
83248;BME280;73465;51.038;7.052;2023-10-31T11:07:22;99572.56;;;13.77;63.79
83248;BME280;73465;51.038;7.052;2023-10-31T11:09:49;99571.59;;;13.90;63.16
83248;BME280;73465;51.038;7.052;2023-10-31T11:12:15;99569.19;;;14.09;63.10
83248;BME280;73465;51.038;7.052;2023-10-31T11:14:41;99568.69;;;14.27;62.58
83248;BME280;73465;51.038;7.052;2023-10-31T11:17:13;99572.03;;;14.52;62.75
83248;BME280;73465;51.038;7.052;2023-10-31T11:19:42;99575.63;;;14.73;61.50
83248;BME280;73465;51.038;7.052;2023-10-31T11:22:07;99573.38;;;14.23;62.18
83248;BME280;73465;51.038;7.052;2023-10-31T11:24:34;99577.59;;;14.26;62.56
83248;BME280;73465;51.038;7.052;2023-10-31T11:27:04;99575.94;;;14.02;62.70
83248;BME280;73465;51.038;7.052;2023-10-31T11:29:31;99577.25;;;14.08;63.91
83248;BME280;73465;51.038;7.052;2023-10-31T11:31:57;99586.03;;;14.20;62.79
83248;BME280;73465;51.038;7.052;2023-10-31T11:34:25;99578.09;;;14.31;62.50
83248;BME280;73465;51.038;7.052;2023-10-31T11:36:51;99582.44;;;13.98;62.83
83248;BME280;73465;51.038;7.052;2023-10-31T11:39:23;99585.31;;;14.06;62.50
83248;BME280;73465;51.038;7.052;2023-10-31T11:41:54;99588.94;;;14.05;62.92
83248;BME280;73465;51.038;7.052;2023-10-31T11:44:23;99591.81;;;14.36;62.18
83248;BME280;73465;51.038;7.052;2023-10-31T11:46:50;99590.34;;;14.32;61.78
83248;BME280;73465;51.038;7.052;2023-10-31T11:52:03;99592.88;;;14.11;62.44
83248;BME280;73465;51.038;7.052;2023-10-31T11:54:38;99603.97;;;13.93;63.16
83248;BME280;73465;51.038;7.052;2023-10-31T11:57:04;99602.16;;;14.05;62.60
83248;BME280;73465;51.038;7.052;2023-10-31T11:59:39;99608.91;;;13.98;62.82
83248;BME280;73465;51.038;7.052;2023-10-31T12:02:14;99606.13;;;14.45;61.97
83248;BME280;73465;51.038;7.052;2023-10-31T12:04:40;99598.38;;;14.76;61.56
83248;BME280;73465;51.038;7.052;2023-10-31T12:07:05;99603.53;;;14.89;59.94
83248;BME280;73465;51.038;7.052;2023-10-31T12:09:31;99605.47;;;14.87;60.54
83248;BME280;73465;51.038;7.052;2023-10-31T12:11:56;99599.38;;;15.07;60.51
83248;BME280;73465;51.038;7.052;2023-10-31T12:14:21;99602.84;;;15.19;59.48
83248;BME280;73465;51.038;7.052;2023-10-31T12:16:47;99594.50;;;14.91;60.25
83248;BME280;73465;51.038;7.052;2023-10-31T12:19:12;99615.91;;;15.00;59.74
83248;BME280;73465;51.038;7.052;2023-10-31T12:24:09;99601.56;;;15.02;58.72
83248;BME280;73465;51.038;7.052;2023-10-31T12:26:36;99606.69;;;14.71;59.18
83248;BME280;73465;51.038;7.052;2023-10-31T12:29:11;99602.09;;;14.85;59.73
83248;BME280;73465;51.038;7.052;2023-10-31T12:34:11;99600.09;;;15.10;59.44
83248;BME280;73465;51.038;7.052;2023-10-31T12:36:37;99607.56;;;15.04;59.27
83248;BME280;73465;51.038;7.052;2023-10-31T12:39:08;99607.28;;;15.40;59.02
83248;BME280;73465;51.038;7.052;2023-10-31T12:41:35;99601.25;;;15.92;57.99
83248;BME280;73465;51.038;7.052;2023-10-31T12:44:01;99605.97;;;16.19;56.30
83248;BME280;73465;51.038;7.052;2023-10-31T12:46:30;99607.75;;;15.66;57.46
83248;BME280;73465;51.038;7.052;2023-10-31T12:48:56;99600.38;;;15.91;57.58
83248;BME280;73465;51.038;7.052;2023-10-31T12:51:22;99598.69;;;15.69;57.03
83248;BME280;73465;51.038;7.052;2023-10-31T12:53:51;99595.41;;;15.55;57.53
83248;BME280;73465;51.038;7.052;2023-10-31T12:59:03;99595.34;;;16.19;56.75
83248;BME280;73465;51.038;7.052;2023-10-31T13:01:29;99597.81;;;17.02;54.52
83248;BME280;73465;51.038;7.052;2023-10-31T13:03:54;99595.53;;;16.88;54.64
83248;BME280;73465;51.038;7.052;2023-10-31T13:06:20;99603.13;;;17.12;55.39
83248;BME280;73465;51.038;7.052;2023-10-31T13:08:48;99601.28;;;17.52;53.60
83248;BME280;73465;51.038;7.052;2023-10-31T13:11:14;99596.06;;;17.70;53.12
83248;BME280;73465;51.038;7.052;2023-10-31T13:13:39;99599.34;;;17.44;52.97
83248;BME280;73465;51.038;7.052;2023-10-31T13:16:04;99590.97;;;16.99;52.68
83248;BME280;73465;51.038;7.052;2023-10-31T13:18:30;99603.25;;;17.00;52.38
83248;BME280;73465;51.038;7.052;2023-10-31T13:20:55;99585.31;;;17.42;53.45
83248;BME280;73465;51.038;7.052;2023-10-31T13:23:21;99593.97;;;17.63;51.25
83248;BME280;73465;51.038;7.052;2023-10-31T13:25:46;99598.47;;;17.43;52.53
83248;BME280;73465;51.038;7.052;2023-10-31T13:28:11;99599.63;;;17.02;53.72